sensor_id;sensor_type;location;lat;lon;timestamp;P1;durP1;ratioP1;P2;durP2;ratioP2
83447;SDS011;73376;45.472;-73.568;2023-12-07T00:01:11;7.72;;;3.78;;
83447;SDS011;73376;45.472;-73.568;2023-12-07T00:03:39;6.65;;;3.53;;
83447;SDS011;73376;45.472;-73.568;2023-12-07T00:06:05;7.23;;;3.70;;
83447;SDS011;73376;45.472;-73.568;2023-12-07T00:08:32;8.98;;;3.78;;
83447;SDS011;73376;45.472;-73.568;2023-12-07T00:10:58;8.10;;;3.93;;
83447;SDS011;73376;45.472;-73.568;2023-12-07T00:13:24;7.22;;;2.83;;
83447;SDS011;73376;45.472;-73.568;2023-12-07T00:15:50;7.38;;;3.55;;
83447;SDS011;73376;45.472;-73.568;2023-12-07T00:18:19;5.78;;;3.30;;
83447;SDS011;73376;45.472;-73.568;2023-12-07T00:20:50;6.63;;;3.10;;
83447;SDS011;73376;45.472;-73.568;2023-12-07T00:23:16;5.75;;;2.60;;
83447;SDS011;73376;45.472;-73.568;2023-12-07T00:25:44;7.05;;;2.70;;
83447;SDS011;73376;45.472;-73.568;2023-12-07T00:28:11;5.75;;;2.80;;
83447;SDS011;73376;45.472;-73.568;2023-12-07T00:30:40;4.72;;;2.80;;
83447;SDS011;73376;45.472;-73.568;2023-12-07T00:33:07;4.68;;;2.53;;
83447;SDS011;73376;45.472;-73.568;2023-12-07T00:35:36;5.82;;;2.92;;
83447;SDS011;73376;45.472;-73.568;2023-12-07T00:38:03;4.90;;;2.47;;
83447;SDS011;73376;45.472;-73.568;2023-12-07T00:40:31;4.00;;;2.28;;
83447;SDS011;73376;45.472;-73.568;2023-12-07T00:43:03;4.22;;;2.45;;
83447;SDS011;73376;45.472;-73.568;2023-12-07T00:45:30;4.60;;;2.30;;
83447;SDS011;73376;45.472;-73.568;2023-12-07T00:47:57;4.72;;;2.58;;
83447;SDS011;73376;45.472;-73.568;2023-12-07T00:50:23;6.45;;;2.65;;
83447;SDS011;73376;45.472;-73.568;2023-12-07T00:52:49;5.00;;;2.83;;
83447;SDS011;73376;45.472;-73.568;2023-12-07T00:55:18;5.43;;;2.70;;
83447;SDS011;73376;45.472;-73.568;2023-12-07T00:57:44;6.47;;;2.92;;
83447;SDS011;73376;45.472;-73.568;2023-12-07T01:00:11;6.85;;;3.03;;
83447;SDS011;73376;45.472;-73.568;2023-12-07T01:02:40;8.05;;;3.08;;
83447;SDS011;73376;45.472;-73.568;2023-12-07T01:05:09;6.65;;;2.80;;
83447;SDS011;73376;45.472;-73.568;2023-12-07T01:07:35;4.90;;;2.90;;
83447;SDS011;73376;45.472;-73.568;2023-12-07T01:10:01;7.72;;;2.90;;
83447;SDS011;73376;45.472;-73.568;2023-12-07T01:12:28;6.95;;;2.70;;
83447;SDS011;73376;45.472;-73.568;2023-12-07T01:14:56;6.80;;;2.72;;
83447;SDS011;73376;45.472;-73.568;2023-12-07T01:17:22;5.18;;;2.58;;
83447;SDS011;73376;45.472;-73.568;2023-12-07T01:19:50;6.78;;;2.65;;
83447;SDS011;73376;45.472;-73.568;2023-12-07T01:22:17;6.97;;;2.65;;
83447;SDS011;73376;45.472;-73.568;2023-12-07T01:24:46;9.32;;;2.63;;
83447;SDS011;73376;45.472;-73.568;2023-12-07T01:27:12;8.68;;;3.08;;
83447;SDS011;73376;45.472;-73.568;2023-12-07T01:29:38;7.05;;;2.60;;
83447;SDS011;73376;45.472;-73.568;2023-12-07T01:32:07;6.68;;;2.85;;
83447;SDS011;73376;45.472;-73.568;2023-12-07T01:34:33;4.70;;;2.85;;
83447;SDS011;73376;45.472;-73.568;2023-12-07T01:37:00;5.68;;;2.80;;
83447;SDS011;73376;45.472;-73.568;2023-12-07T01:39:26;6.93;;;2.95;;
83447;SDS011;73376;45.472;-73.568;2023-12-07T01:41:53;4.10;;;2.45;;
83447;SDS011;73376;45.472;-73.568;2023-12-07T01:44:20;5.00;;;2.83;;
83447;SDS011;73376;45.472;-73.568;2023-12-07T01:46:48;5.93;;;2.90;;
83447;SDS011;73376;45.472;-73.568;2023-12-07T01:49:14;4.68;;;2.55;;
83447;SDS011;73376;45.472;-73.568;2023-12-07T01:51:44;5.28;;;2.90;;
83447;SDS011;73376;45.472;-73.568;2023-12-07T01:54:11;8.13;;;3.05;;
83447;SDS011;73376;45.472;-73.568;2023-12-07T01:56:40;4.78;;;2.92;;
83447;SDS011;73376;45.472;-73.568;2023-12-07T01:59:07;8.48;;;3.03;;
83447;SDS011;73376;45.472;-73.568;2023-12-07T02:01:34;6.82;;;2.90;;
83447;SDS011;73376;45.472;-73.568;2023-12-07T02:04:00;7.85;;;3.05;;
83447;SDS011;73376;45.472;-73.568;2023-12-07T02:06:27;7.15;;;2.97;;
83447;SDS011;73376;45.472;-73.568;2023-12-07T02:08:54;5.60;;;2.67;;
83447;SDS011;73376;45.472;-73.568;2023-12-07T02:11:21;7.18;;;2.97;;
83447;SDS011;73376;45.472;-73.568;2023-12-07T02:13:50;5.40;;;2.67;;
83447;SDS011;73376;45.472;-73.568;2023-12-07T02:16:29;5.25;;;2.80;;
83447;SDS011;73376;45.472;-73.568;2023-12-07T02:21:49;4.75;;;3.00;;
83447;SDS011;73376;45.472;-73.568;2023-12-07T02:24:17;5.57;;;2.58;;
83447;SDS011;73376;45.472;-73.568;2023-12-07T02:26:53;5.55;;;2.42;;
83447;SDS011;73376;45.472;-73.568;2023-12-07T02:29:21;6.47;;;3.15;;
83447;SDS011;73376;45.472;-73.568;2023-12-07T02:31:50;6.20;;;3.17;;
83447;SDS011;73376;45.472;-73.568;2023-12-07T02:34:16;6.35;;;3.03;;
83447;SDS011;73376;45.472;-73.568;2023-12-07T02:36:44;7.43;;;3.00;;
83447;SDS011;73376;45.472;-73.568;2023-12-07T02:39:13;5.55;;;2.85;;
83447;SDS011;73376;45.472;-73.568;2023-12-07T02:41:40;8.27;;;3.25;;
83447;SDS011;73376;45.472;-73.568;2023-12-07T02:44:08;6.75;;;3.30;;
83447;SDS011;73376;45.472;-73.568;2023-12-07T02:46:37;6.85;;;3.13;;
83447;SDS011;73376;45.472;-73.568;2023-12-07T02:49:04;6.93;;;3.45;;
83447;SDS011;73376;45.472;-73.568;2023-12-07T02:51:31;6.13;;;3.08;;
83447;SDS011;73376;45.472;-73.568;2023-12-07T02:53:57;8.43;;;3.60;;
83447;SDS011;73376;45.472;-73.568;2023-12-07T02:56:23;7.80;;;3.40;;
83447;SDS011;73376;45.472;-73.568;2023-12-07T02:58:50;6.57;;;3.38;;
83447;SDS011;73376;45.472;-73.568;2023-12-07T03:01:16;8.57;;;3.25;;
83447;SDS011;73376;45.472;-73.568;2023-12-07T03:03:45;6.72;;;3.53;;
83447;SDS011;73376;45.472;-73.568;2023-12-07T03:06:12;7.13;;;3.20;;
83447;SDS011;73376;45.472;-73.568;2023-12-07T03:08:40;6.25;;;3.17;;
83447;SDS011;73376;45.472;-73.568;2023-12-07T03:11:07;7.80;;;3.30;;
83447;SDS011;73376;45.472;-73.568;2023-12-07T03:13:35;8.48;;;3.40;;
83447;SDS011;73376;45.472;-73.568;2023-12-07T03:16:06;6.25;;;3.38;;
83447;SDS011;73376;45.472;-73.568;2023-12-07T03:18:34;10.15;;;4.20;;
83447;SDS011;73376;45.472;-73.568;2023-12-07T03:21:01;8.55;;;3.90;;
83447;SDS011;73376;45.472;-73.568;2023-12-07T03:23:31;9.65;;;3.92;;
83447;SDS011;73376;45.472;-73.568;2023-12-07T03:25:57;6.25;;;3.40;;
83447;SDS011;73376;45.472;-73.568;2023-12-07T03:28:26;8.88;;;3.63;;
83447;SDS011;73376;45.472;-73.568;2023-12-07T03:30:52;8.05;;;2.75;;
83447;SDS011;73376;45.472;-73.568;2023-12-07T03:33:18;6.72;;;2.95;;
83447;SDS011;73376;45.472;-73.568;2023-12-07T03:35:44;7.65;;;3.25;;
83447;SDS011;73376;45.472;-73.568;2023-12-07T03:38:13;6.63;;;3.05;;
83447;SDS011;73376;45.472;-73.568;2023-12-07T03:40:40;6.30;;;3.30;;
83447;SDS011;73376;45.472;-73.568;2023-12-07T03:43:13;7.45;;;2.95;;
83447;SDS011;73376;45.472;-73.568;2023-12-07T03:45:39;5.72;;;3.00;;
83447;SDS011;73376;45.472;-73.568;2023-12-07T03:48:08;5.03;;;2.78;;
83447;SDS011;73376;45.472;-73.568;2023-12-07T03:50:34;5.47;;;2.42;;
83447;SDS011;73376;45.472;-73.568;2023-12-07T03:53:01;6.57;;;2.95;;
83447;SDS011;73376;45.472;-73.568;2023-12-07T03:55:28;6.60;;;3.08;;
83447;SDS011;73376;45.472;-73.568;2023-12-07T03:57:54;5.53;;;2.45;;
83447;SDS011;73376;45.472;-73.568;2023-12-07T04:00:21;7.95;;;2.95;;
83447;SDS011;73376;45.472;-73.568;2023-12-07T04:02:47;8.60;;;2.90;;
83447;SDS011;73376;45.472;-73.568;2023-12-07T04:05:13;6.43;;;2.65;;
83447;SDS011;73376;45.472;-73.568;2023-12-07T04:07:42;5.38;;;2.85;;
83447;SDS011;73376;45.472;-73.568;2023-12-07T04:10:11;5.80;;;3.20;;
83447;SDS011;73376;45.472;-73.568;2023-12-07T04:12:37;5.35;;;2.90;;
83447;SDS011;73376;45.472;-73.568;2023-12-07T04:15:03;5.72;;;3.28;;
83447;SDS011;73376;45.472;-73.568;2023-12-07T04:17:30;5.90;;;2.95;;
83447;SDS011;73376;45.472;-73.568;2023-12-07T04:19:56;5.45;;;3.03;;
83447;SDS011;73376;45.472;-73.568;2023-12-07T04:22:23;5.07;;;2.75;;
83447;SDS011;73376;45.472;-73.568;2023-12-07T04:24:49;6.22;;;3.20;;
83447;SDS011;73376;45.472;-73.568;2023-12-07T04:27:20;7.40;;;3.20;;
83447;SDS011;73376;45.472;-73.568;2023-12-07T04:29:49;4.95;;;2.40;;
83447;SDS011;73376;45.472;-73.568;2023-12-07T04:32:20;6.82;;;3.50;;
83447;SDS011;73376;45.472;-73.568;2023-12-07T04:34:46;7.65;;;3.22;;
83447;SDS011;73376;45.472;-73.568;2023-12-07T04:37:12;6.70;;;3.30;;
83447;SDS011;73376;45.472;-73.568;2023-12-07T04:39:38;5.78;;;3.03;;
83447;SDS011;73376;45.472;-73.568;2023-12-07T04:42:04;6.65;;;3.13;;
83447;SDS011;73376;45.472;-73.568;2023-12-07T04:44:30;10.00;;;3.95;;
83447;SDS011;73376;45.472;-73.568;2023-12-07T04:46:56;6.77;;;3.30;;
83447;SDS011;73376;45.472;-73.568;2023-12-07T04:49:22;4.60;;;2.63;;
83447;SDS011;73376;45.472;-73.568;2023-12-07T04:51:48;6.53;;;3.25;;
83447;SDS011;73376;45.472;-73.568;2023-12-07T04:54:15;5.75;;;2.95;;
83447;SDS011;73376;45.472;-73.568;2023-12-07T04:56:41;7.05;;;3.22;;
83447;SDS011;73376;45.472;-73.568;2023-12-07T04:59:07;5.22;;;3.03;;
83447;SDS011;73376;45.472;-73.568;2023-12-07T05:01:38;5.95;;;3.25;;
83447;SDS011;73376;45.472;-73.568;2023-12-07T05:04:04;4.63;;;2.50;;
83447;SDS011;73376;45.472;-73.568;2023-12-07T05:06:31;7.90;;;3.20;;
83447;SDS011;73376;45.472;-73.568;2023-12-07T05:08:57;6.60;;;2.58;;
83447;SDS011;73376;45.472;-73.568;2023-12-07T05:11:23;5.60;;;3.17;;
83447;SDS011;73376;45.472;-73.568;2023-12-07T05:13:49;7.28;;;2.70;;
83447;SDS011;73376;45.472;-73.568;2023-12-07T05:16:16;8.88;;;3.08;;
83447;SDS011;73376;45.472;-73.568;2023-12-07T05:18:42;5.90;;;3.20;;
83447;SDS011;73376;45.472;-73.568;2023-12-07T05:21:09;10.45;;;3.20;;
83447;SDS011;73376;45.472;-73.568;2023-12-07T05:23:35;6.67;;;3.20;;
83447;SDS011;73376;45.472;-73.568;2023-12-07T05:26:04;5.20;;;2.53;;
83447;SDS011;73376;45.472;-73.568;2023-12-07T05:28:30;4.85;;;2.78;;
83447;SDS011;73376;45.472;-73.568;2023-12-07T05:30:56;6.17;;;3.00;;
83447;SDS011;73376;45.472;-73.568;2023-12-07T05:33:22;5.35;;;2.50;;
83447;SDS011;73376;45.472;-73.568;2023-12-07T05:35:48;6.80;;;2.77;;
83447;SDS011;73376;45.472;-73.568;2023-12-07T05:38:14;7.55;;;2.95;;
83447;SDS011;73376;45.472;-73.568;2023-12-07T05:40:40;6.25;;;2.55;;
83447;SDS011;73376;45.472;-73.568;2023-12-07T05:43:08;5.13;;;2.50;;
83447;SDS011;73376;45.472;-73.568;2023-12-07T05:45:34;5.83;;;2.77;;
83447;SDS011;73376;45.472;-73.568;2023-12-07T05:48:00;5.13;;;2.47;;
83447;SDS011;73376;45.472;-73.568;2023-12-07T05:50:26;4.65;;;2.05;;
83447;SDS011;73376;45.472;-73.568;2023-12-07T05:52:52;5.70;;;2.55;;
83447;SDS011;73376;45.472;-73.568;2023-12-07T05:55:18;4.83;;;2.47;;
83447;SDS011;73376;45.472;-73.568;2023-12-07T05:57:45;3.90;;;2.17;;
83447;SDS011;73376;45.472;-73.568;2023-12-07T06:00:11;5.63;;;2.30;;
83447;SDS011;73376;45.472;-73.568;2023-12-07T06:02:38;4.53;;;2.53;;
83447;SDS011;73376;45.472;-73.568;2023-12-07T06:05:05;5.35;;;2.60;;
83447;SDS011;73376;45.472;-73.568;2023-12-07T06:07:31;6.72;;;2.35;;
83447;SDS011;73376;45.472;-73.568;2023-12-07T06:10:00;4.43;;;2.47;;
83447;SDS011;73376;45.472;-73.568;2023-12-07T06:12:30;6.25;;;3.10;;
83447;SDS011;73376;45.472;-73.568;2023-12-07T06:14:56;5.13;;;2.50;;
83447;SDS011;73376;45.472;-73.568;2023-12-07T06:17:22;4.38;;;2.00;;
83447;SDS011;73376;45.472;-73.568;2023-12-07T06:19:48;5.65;;;2.53;;
83447;SDS011;73376;45.472;-73.568;2023-12-07T06:22:14;4.97;;;2.30;;
83447;SDS011;73376;45.472;-73.568;2023-12-07T06:24:40;5.90;;;2.40;;
83447;SDS011;73376;45.472;-73.568;2023-12-07T06:27:06;5.00;;;2.43;;
83447;SDS011;73376;45.472;-73.568;2023-12-07T06:29:32;4.90;;;2.42;;
83447;SDS011;73376;45.472;-73.568;2023-12-07T06:31:58;5.03;;;2.57;;
83447;SDS011;73376;45.472;-73.568;2023-12-07T06:34:25;9.50;;;2.53;;
83447;SDS011;73376;45.472;-73.568;2023-12-07T06:36:53;5.60;;;2.67;;
83447;SDS011;73376;45.472;-73.568;2023-12-07T06:39:19;5.35;;;2.60;;
83447;SDS011;73376;45.472;-73.568;2023-12-07T06:41:45;6.43;;;2.55;;
83447;SDS011;73376;45.472;-73.568;2023-12-07T06:44:11;6.03;;;2.60;;
83447;SDS011;73376;45.472;-73.568;2023-12-07T06:46:37;6.53;;;2.65;;
83447;SDS011;73376;45.472;-73.568;2023-12-07T06:49:03;5.50;;;2.40;;
83447;SDS011;73376;45.472;-73.568;2023-12-07T06:51:29;6.20;;;2.65;;
83447;SDS011;73376;45.472;-73.568;2023-12-07T06:53:55;5.53;;;2.83;;
83447;SDS011;73376;45.472;-73.568;2023-12-07T06:56:21;5.93;;;2.63;;
83447;SDS011;73376;45.472;-73.568;2023-12-07T06:58:47;5.00;;;2.40;;
83447;SDS011;73376;45.472;-73.568;2023-12-07T07:01:13;6.13;;;2.70;;
83447;SDS011;73376;45.472;-73.568;2023-12-07T07:03:41;5.05;;;2.55;;
83447;SDS011;73376;45.472;-73.568;2023-12-07T07:06:07;5.80;;;2.65;;
83447;SDS011;73376;45.472;-73.568;2023-12-07T07:08:33;7.20;;;3.33;;
83447;SDS011;73376;45.472;-73.568;2023-12-07T07:11:01;6.47;;;2.83;;
83447;SDS011;73376;45.472;-73.568;2023-12-07T07:13:30;5.50;;;2.25;;
83447;SDS011;73376;45.472;-73.568;2023-12-07T07:15:56;4.13;;;2.33;;
83447;SDS011;73376;45.472;-73.568;2023-12-07T07:18:22;6.00;;;2.90;;
83447;SDS011;73376;45.472;-73.568;2023-12-07T07:20:49;5.28;;;2.85;;
83447;SDS011;73376;45.472;-73.568;2023-12-07T07:23:15;6.37;;;2.80;;
83447;SDS011;73376;45.472;-73.568;2023-12-07T07:25:41;5.05;;;2.75;;
83447;SDS011;73376;45.472;-73.568;2023-12-07T07:28:07;7.97;;;3.37;;
83447;SDS011;73376;45.472;-73.568;2023-12-07T07:30:36;7.68;;;2.67;;
83447;SDS011;73376;45.472;-73.568;2023-12-07T07:33:03;9.65;;;3.17;;
83447;SDS011;73376;45.472;-73.568;2023-12-07T07:35:29;6.50;;;2.80;;
83447;SDS011;73376;45.472;-73.568;2023-12-07T07:37:55;6.50;;;3.05;;
83447;SDS011;73376;45.472;-73.568;2023-12-07T07:40:21;5.60;;;2.60;;
83447;SDS011;73376;45.472;-73.568;2023-12-07T07:42:47;8.17;;;3.33;;
83447;SDS011;73376;45.472;-73.568;2023-12-07T07:45:13;10.83;;;3.23;;
83447;SDS011;73376;45.472;-73.568;2023-12-07T07:47:39;7.63;;;3.08;;
83447;SDS011;73376;45.472;-73.568;2023-12-07T07:50:08;5.10;;;2.80;;
83447;SDS011;73376;45.472;-73.568;2023-12-07T07:52:35;6.88;;;3.20;;
83447;SDS011;73376;45.472;-73.568;2023-12-07T07:55:03;5.15;;;2.75;;
83447;SDS011;73376;45.472;-73.568;2023-12-07T07:57:30;6.25;;;3.05;;
83447;SDS011;73376;45.472;-73.568;2023-12-07T07:59:59;6.72;;;2.88;;
83447;SDS011;73376;45.472;-73.568;2023-12-07T08:02:25;5.90;;;3.40;;
83447;SDS011;73376;45.472;-73.568;2023-12-07T08:04:53;6.97;;;3.35;;
83447;SDS011;73376;45.472;-73.568;2023-12-07T08:07:19;6.80;;;3.22;;
83447;SDS011;73376;45.472;-73.568;2023-12-07T08:09:48;5.75;;;3.08;;
83447;SDS011;73376;45.472;-73.568;2023-12-07T08:12:14;8.47;;;2.93;;
83447;SDS011;73376;45.472;-73.568;2023-12-07T08:14:40;6.72;;;3.05;;
83447;SDS011;73376;45.472;-73.568;2023-12-07T08:17:09;6.22;;;3.20;;
83447;SDS011;73376;45.472;-73.568;2023-12-07T08:19:41;5.45;;;3.25;;
83447;SDS011;73376;45.472;-73.568;2023-12-07T08:22:07;5.78;;;3.08;;
83447;SDS011;73376;45.472;-73.568;2023-12-07T08:24:33;7.82;;;3.83;;
83447;SDS011;73376;45.472;-73.568;2023-12-07T08:26:59;7.35;;;3.38;;
83447;SDS011;73376;45.472;-73.568;2023-12-07T08:29:25;4.77;;;2.70;;
83447;SDS011;73376;45.472;-73.568;2023-12-07T08:31:53;5.97;;;3.25;;
83447;SDS011;73376;45.472;-73.568;2023-12-07T08:34:19;6.10;;;2.90;;
83447;SDS011;73376;45.472;-73.568;2023-12-07T08:36:45;7.53;;;3.33;;
83447;SDS011;73376;45.472;-73.568;2023-12-07T08:39:11;6.00;;;3.10;;
83447;SDS011;73376;45.472;-73.568;2023-12-07T08:41:37;5.30;;;3.00;;
83447;SDS011;73376;45.472;-73.568;2023-12-07T08:44:04;6.60;;;2.93;;
83447;SDS011;73376;45.472;-73.568;2023-12-07T08:46:30;6.72;;;3.20;;
83447;SDS011;73376;45.472;-73.568;2023-12-07T08:48:56;6.05;;;2.95;;
83447;SDS011;73376;45.472;-73.568;2023-12-07T08:51:22;7.20;;;2.97;;
83447;SDS011;73376;45.472;-73.568;2023-12-07T08:53:49;5.65;;;2.90;;
83447;SDS011;73376;45.472;-73.568;2023-12-07T08:56:20;7.93;;;3.47;;
83447;SDS011;73376;45.472;-73.568;2023-12-07T08:58:46;5.43;;;2.90;;
83447;SDS011;73376;45.472;-73.568;2023-12-07T09:01:12;7.00;;;3.17;;
83447;SDS011;73376;45.472;-73.568;2023-12-07T09:03:38;7.60;;;3.63;;
83447;SDS011;73376;45.472;-73.568;2023-12-07T09:06:04;7.33;;;3.73;;
83447;SDS011;73376;45.472;-73.568;2023-12-07T09:08:31;6.57;;;3.30;;
83447;SDS011;73376;45.472;-73.568;2023-12-07T09:10:57;9.37;;;3.83;;
83447;SDS011;73376;45.472;-73.568;2023-12-07T09:13:25;6.95;;;3.55;;
83447;SDS011;73376;45.472;-73.568;2023-12-07T09:15:53;7.95;;;3.75;;
83447;SDS011;73376;45.472;-73.568;2023-12-07T09:18:19;8.67;;;3.83;;
83447;SDS011;73376;45.472;-73.568;2023-12-07T09:20:45;7.33;;;3.90;;
83447;SDS011;73376;45.472;-73.568;2023-12-07T09:23:14;6.43;;;3.33;;
83447;SDS011;73376;45.472;-73.568;2023-12-07T09:25:41;7.85;;;4.07;;
83447;SDS011;73376;45.472;-73.568;2023-12-07T09:28:07;7.47;;;3.80;;
83447;SDS011;73376;45.472;-73.568;2023-12-07T09:30:34;8.18;;;3.42;;
83447;SDS011;73376;45.472;-73.568;2023-12-07T09:33:00;8.65;;;4.57;;
83447;SDS011;73376;45.472;-73.568;2023-12-07T09:35:29;8.18;;;3.58;;
83447;SDS011;73376;45.472;-73.568;2023-12-07T09:37:56;7.55;;;3.83;;
83447;SDS011;73376;45.472;-73.568;2023-12-07T09:40:22;8.60;;;4.13;;
83447;SDS011;73376;45.472;-73.568;2023-12-07T09:42:50;9.07;;;4.28;;
83447;SDS011;73376;45.472;-73.568;2023-12-07T09:45:17;6.28;;;3.67;;
83447;SDS011;73376;45.472;-73.568;2023-12-07T09:48:02;8.52;;;3.83;;
83447;SDS011;73376;45.472;-73.568;2023-12-07T09:50:29;7.78;;;3.78;;
83447;SDS011;73376;45.472;-73.568;2023-12-07T09:52:56;7.90;;;4.05;;
83447;SDS011;73376;45.472;-73.568;2023-12-07T09:55:23;6.45;;;3.17;;
83447;SDS011;73376;45.472;-73.568;2023-12-07T09:57:52;8.85;;;3.67;;
83447;SDS011;73376;45.472;-73.568;2023-12-07T10:00:22;7.63;;;3.67;;
83447;SDS011;73376;45.472;-73.568;2023-12-07T10:02:48;6.72;;;3.50;;
83447;SDS011;73376;45.472;-73.568;2023-12-07T10:05:15;7.13;;;3.85;;
83447;SDS011;73376;45.472;-73.568;2023-12-07T10:07:43;8.77;;;4.00;;
83447;SDS011;73376;45.472;-73.568;2023-12-07T10:10:11;11.65;;;3.95;;
83447;SDS011;73376;45.472;-73.568;2023-12-07T10:12:46;5.65;;;3.50;;
83447;SDS011;73376;45.472;-73.568;2023-12-07T10:15:19;6.10;;;3.50;;
83447;SDS011;73376;45.472;-73.568;2023-12-07T10:17:49;6.93;;;3.28;;
83447;SDS011;73376;45.472;-73.568;2023-12-07T10:20:20;6.72;;;3.42;;
83447;SDS011;73376;45.472;-73.568;2023-12-07T10:23:03;5.32;;;3.20;;
83447;SDS011;73376;45.472;-73.568;2023-12-07T10:25:48;11.20;;;4.32;;
83447;SDS011;73376;45.472;-73.568;2023-12-07T10:28:14;5.63;;;3.42;;
83447;SDS011;73376;45.472;-73.568;2023-12-07T10:30:43;7.07;;;3.78;;
83447;SDS011;73376;45.472;-73.568;2023-12-07T10:33:11;7.45;;;3.47;;
83447;SDS011;73376;45.472;-73.568;2023-12-07T10:35:38;6.35;;;3.58;;
83447;SDS011;73376;45.472;-73.568;2023-12-07T10:38:06;8.40;;;3.90;;
83447;SDS011;73376;45.472;-73.568;2023-12-07T10:40:32;5.90;;;3.38;;
83447;SDS011;73376;45.472;-73.568;2023-12-07T10:43:02;7.50;;;3.83;;
83447;SDS011;73376;45.472;-73.568;2023-12-07T10:45:31;6.68;;;3.55;;
83447;SDS011;73376;45.472;-73.568;2023-12-07T10:48:15;6.65;;;3.38;;
83447;SDS011;73376;45.472;-73.568;2023-12-07T10:50:45;6.32;;;3.70;;
83447;SDS011;73376;45.472;-73.568;2023-12-07T10:53:29;6.15;;;3.50;;
83447;SDS011;73376;45.472;-73.568;2023-12-07T10:56:05;6.20;;;3.33;;
83447;SDS011;73376;45.472;-73.568;2023-12-07T10:58:51;8.02;;;3.95;;
83447;SDS011;73376;45.472;-73.568;2023-12-07T11:01:20;7.43;;;3.72;;
83447;SDS011;73376;45.472;-73.568;2023-12-07T11:03:49;6.53;;;3.60;;
83447;SDS011;73376;45.472;-73.568;2023-12-07T11:06:16;8.38;;;3.92;;
83447;SDS011;73376;45.472;-73.568;2023-12-07T11:08:49;6.65;;;3.50;;
83447;SDS011;73376;45.472;-73.568;2023-12-07T11:11:30;6.45;;;3.38;;
83447;SDS011;73376;45.472;-73.568;2023-12-07T11:16:32;6.38;;;3.30;;
83447;SDS011;73376;45.472;-73.568;2023-12-07T11:19:03;6.40;;;3.58;;
83447;SDS011;73376;45.472;-73.568;2023-12-07T11:21:32;7.03;;;3.70;;
83447;SDS011;73376;45.472;-73.568;2023-12-07T11:24:00;7.05;;;3.70;;
83447;SDS011;73376;45.472;-73.568;2023-12-07T11:26:29;8.75;;;4.38;;
83447;SDS011;73376;45.472;-73.568;2023-12-07T11:28:58;8.80;;;3.88;;
83447;SDS011;73376;45.472;-73.568;2023-12-07T11:31:25;6.90;;;3.45;;
83447;SDS011;73376;45.472;-73.568;2023-12-07T11:33:51;6.10;;;3.35;;
83447;SDS011;73376;45.472;-73.568;2023-12-07T11:36:18;8.35;;;4.07;;
83447;SDS011;73376;45.472;-73.568;2023-12-07T11:41:43;6.75;;;3.90;;
83447;SDS011;73376;45.472;-73.568;2023-12-07T11:44:10;5.95;;;3.50;;
83447;SDS011;73376;45.472;-73.568;2023-12-07T11:46:37;7.82;;;4.13;;
83447;SDS011;73376;45.472;-73.568;2023-12-07T11:49:06;12.77;;;3.92;;
83447;SDS011;73376;45.472;-73.568;2023-12-07T11:51:36;7.35;;;3.67;;
83447;SDS011;73376;45.472;-73.568;2023-12-07T11:54:02;7.28;;;3.95;;
83447;SDS011;73376;45.472;-73.568;2023-12-07T11:56:28;6.70;;;3.70;;
83447;SDS011;73376;45.472;-73.568;2023-12-07T11:58:54;7.80;;;3.80;;
83447;SDS011;73376;45.472;-73.568;2023-12-07T12:01:21;7.72;;;3.88;;
83447;SDS011;73376;45.472;-73.568;2023-12-07T12:03:49;6.63;;;3.67;;
83447;SDS011;73376;45.472;-73.568;2023-12-07T12:06:15;6.43;;;3.93;;
83447;SDS011;73376;45.472;-73.568;2023-12-07T12:08:42;8.30;;;4.35;;
83447;SDS011;73376;45.472;-73.568;2023-12-07T12:11:08;7.50;;;3.85;;
83447;SDS011;73376;45.472;-73.568;2023-12-07T12:13:35;7.63;;;3.58;;
83447;SDS011;73376;45.472;-73.568;2023-12-07T12:16:02;7.80;;;4.18;;
83447;SDS011;73376;45.472;-73.568;2023-12-07T12:18:29;8.20;;;4.13;;
83447;SDS011;73376;45.472;-73.568;2023-12-07T12:20:55;6.97;;;3.78;;
83447;SDS011;73376;45.472;-73.568;2023-12-07T12:23:24;7.32;;;3.65;;
83447;SDS011;73376;45.472;-73.568;2023-12-07T12:25:50;8.52;;;4.32;;
83447;SDS011;73376;45.472;-73.568;2023-12-07T12:28:17;8.35;;;4.68;;
83447;SDS011;73376;45.472;-73.568;2023-12-07T12:30:46;7.80;;;4.00;;
83447;SDS011;73376;45.472;-73.568;2023-12-07T12:33:13;8.88;;;4.40;;
83447;SDS011;73376;45.472;-73.568;2023-12-07T12:35:39;8.18;;;4.28;;
83447;SDS011;73376;45.472;-73.568;2023-12-07T12:38:12;7.63;;;3.95;;
83447;SDS011;73376;45.472;-73.568;2023-12-07T12:40:39;6.47;;;3.45;;
83447;SDS011;73376;45.472;-73.568;2023-12-07T12:43:06;7.10;;;4.10;;
83447;SDS011;73376;45.472;-73.568;2023-12-07T12:45:33;7.47;;;3.92;;
83447;SDS011;73376;45.472;-73.568;2023-12-07T12:47:59;8.23;;;4.25;;
83447;SDS011;73376;45.472;-73.568;2023-12-07T12:50:38;8.90;;;4.03;;
83447;SDS011;73376;45.472;-73.568;2023-12-07T12:53:10;8.70;;;4.50;;
83447;SDS011;73376;45.472;-73.568;2023-12-07T12:55:37;8.68;;;4.43;;
83447;SDS011;73376;45.472;-73.568;2023-12-07T12:58:08;10.38;;;4.28;;
83447;SDS011;73376;45.472;-73.568;2023-12-07T13:00:38;9.73;;;4.63;;
83447;SDS011;73376;45.472;-73.568;2023-12-07T13:03:09;7.97;;;4.00;;
83447;SDS011;73376;45.472;-73.568;2023-12-07T13:05:38;7.72;;;4.45;;
83447;SDS011;73376;45.472;-73.568;2023-12-07T13:08:04;9.88;;;4.95;;
83447;SDS011;73376;45.472;-73.568;2023-12-07T13:10:30;8.43;;;4.70;;
83447;SDS011;73376;45.472;-73.568;2023-12-07T13:12:57;10.43;;;5.00;;
83447;SDS011;73376;45.472;-73.568;2023-12-07T13:15:23;12.77;;;6.80;;
83447;SDS011;73376;45.472;-73.568;2023-12-07T13:17:50;13.10;;;6.93;;
83447;SDS011;73376;45.472;-73.568;2023-12-07T13:20:16;11.95;;;6.18;;
83447;SDS011;73376;45.472;-73.568;2023-12-07T13:22:42;13.53;;;6.53;;
83447;SDS011;73376;45.472;-73.568;2023-12-07T13:25:09;9.90;;;5.40;;
83447;SDS011;73376;45.472;-73.568;2023-12-07T13:27:35;10.98;;;5.30;;
83447;SDS011;73376;45.472;-73.568;2023-12-07T13:30:01;9.32;;;5.20;;
83447;SDS011;73376;45.472;-73.568;2023-12-07T13:32:32;12.55;;;5.65;;
83447;SDS011;73376;45.472;-73.568;2023-12-07T13:34:59;11.18;;;5.97;;
83447;SDS011;73376;45.472;-73.568;2023-12-07T13:37:26;11.65;;;6.00;;
83447;SDS011;73376;45.472;-73.568;2023-12-07T13:39:55;9.70;;;5.30;;
83447;SDS011;73376;45.472;-73.568;2023-12-07T13:42:25;10.10;;;5.75;;
83447;SDS011;73376;45.472;-73.568;2023-12-07T13:44:55;12.70;;;6.30;;
83447;SDS011;73376;45.472;-73.568;2023-12-07T13:47:23;10.52;;;5.97;;
83447;SDS011;73376;45.472;-73.568;2023-12-07T13:50:01;14.30;;;6.75;;
83447;SDS011;73376;45.472;-73.568;2023-12-07T13:52:29;14.13;;;7.20;;
83447;SDS011;73376;45.472;-73.568;2023-12-07T13:54:58;13.27;;;7.28;;
83447;SDS011;73376;45.472;-73.568;2023-12-07T13:57:27;12.95;;;7.45;;
83447;SDS011;73376;45.472;-73.568;2023-12-07T13:59:54;15.48;;;7.95;;
83447;SDS011;73376;45.472;-73.568;2023-12-07T14:02:20;13.02;;;8.20;;
83447;SDS011;73376;45.472;-73.568;2023-12-07T14:04:46;13.65;;;7.32;;
83447;SDS011;73376;45.472;-73.568;2023-12-07T14:07:19;14.70;;;8.13;;
83447;SDS011;73376;45.472;-73.568;2023-12-07T14:09:47;17.35;;;8.27;;
83447;SDS011;73376;45.472;-73.568;2023-12-07T14:12:14;14.32;;;8.38;;
83447;SDS011;73376;45.472;-73.568;2023-12-07T14:14:43;15.85;;;7.80;;
83447;SDS011;73376;45.472;-73.568;2023-12-07T14:17:12;9.55;;;5.53;;
83447;SDS011;73376;45.472;-73.568;2023-12-07T14:19:38;12.55;;;6.28;;
83447;SDS011;73376;45.472;-73.568;2023-12-07T14:22:05;12.20;;;6.50;;
83447;SDS011;73376;45.472;-73.568;2023-12-07T14:24:31;15.82;;;8.38;;
83447;SDS011;73376;45.472;-73.568;2023-12-07T14:26:57;12.95;;;6.72;;
83447;SDS011;73376;45.472;-73.568;2023-12-07T14:29:23;11.87;;;6.07;;
83447;SDS011;73376;45.472;-73.568;2023-12-07T14:31:50;10.80;;;5.53;;